sensor_id;sensor_type;location;lat;lon;timestamp;P1;durP1;ratioP1;P2;durP2;ratioP2
55641;SDS011;41509;53.108;6.100;2023-06-24T00:02:15;8.80;;;5.13;;
55641;SDS011;41509;53.108;6.100;2023-06-24T00:04:40;9.07;;;5.55;;
55641;SDS011;41509;53.108;6.100;2023-06-24T00:07:06;9.18;;;5.18;;
55641;SDS011;41509;53.108;6.100;2023-06-24T00:09:32;9.05;;;5.18;;
55641;SDS011;41509;53.108;6.100;2023-06-24T00:11:58;9.15;;;5.40;;
55641;SDS011;41509;53.108;6.100;2023-06-24T00:16:51;9.10;;;4.93;;
55641;SDS011;41509;53.108;6.100;2023-06-24T00:19:19;10.25;;;5.15;;
55641;SDS011;41509;53.108;6.100;2023-06-24T00:21:52;7.90;;;5.22;;
55641;SDS011;41509;53.108;6.100;2023-06-24T00:24:22;9.25;;;5.63;;
55641;SDS011;41509;53.108;6.100;2023-06-24T00:26:56;10.60;;;5.65;;
55641;SDS011;41509;53.108;6.100;2023-06-24T00:29:22;9.57;;;5.60;;
55641;SDS011;41509;53.108;6.100;2023-06-24T00:31:49;8.73;;;5.20;;
55641;SDS011;41509;53.108;6.100;2023-06-24T00:34:15;9.02;;;4.82;;
55641;SDS011;41509;53.108;6.100;2023-06-24T00:36:41;10.20;;;5.80;;
55641;SDS011;41509;53.108;6.100;2023-06-24T00:39:09;10.48;;;6.00;;
55641;SDS011;41509;53.108;6.100;2023-06-24T00:41:35;9.00;;;5.45;;
55641;SDS011;41509;53.108;6.100;2023-06-24T00:44:01;7.18;;;4.82;;
55641;SDS011;41509;53.108;6.100;2023-06-24T00:46:29;12.02;;;5.28;;
55641;SDS011;41509;53.108;6.100;2023-06-24T00:48:58;9.45;;;5.75;;
55641;SDS011;41509;53.108;6.100;2023-06-24T00:51:27;9.35;;;6.13;;
55641;SDS011;41509;53.108;6.100;2023-06-24T00:53:56;9.32;;;6.07;;
55641;SDS011;41509;53.108;6.100;2023-06-24T00:56:23;10.52;;;6.03;;
55641;SDS011;41509;53.108;6.100;2023-06-24T00:58:55;12.10;;;5.60;;
55641;SDS011;41509;53.108;6.100;2023-06-24T01:01:28;10.38;;;5.75;;
55641;SDS011;41509;53.108;6.100;2023-06-24T01:03:58;8.38;;;5.97;;
55641;SDS011;41509;53.108;6.100;2023-06-24T01:06:25;11.55;;;5.90;;
55641;SDS011;41509;53.108;6.100;2023-06-24T01:08:58;12.32;;;6.25;;
55641;SDS011;41509;53.108;6.100;2023-06-24T01:11:25;10.15;;;6.15;;
55641;SDS011;41509;53.108;6.100;2023-06-24T01:13:52;13.20;;;6.75;;
55641;SDS011;41509;53.108;6.100;2023-06-24T01:18:51;10.00;;;6.50;;
55641;SDS011;41509;53.108;6.100;2023-06-24T01:21:42;11.48;;;6.57;;
55641;SDS011;41509;53.108;6.100;2023-06-24T01:27:24;10.77;;;6.30;;
55641;SDS011;41509;53.108;6.100;2023-06-24T01:33:05;12.90;;;6.25;;
55641;SDS011;41509;53.108;6.100;2023-06-24T01:35:39;12.18;;;6.28;;
55641;SDS011;41509;53.108;6.100;2023-06-24T01:38:08;9.65;;;6.13;;
55641;SDS011;41509;53.108;6.100;2023-06-24T01:40:47;11.93;;;6.72;;
55641;SDS011;41509;53.108;6.100;2023-06-24T01:43:15;13.25;;;7.20;;
55641;SDS011;41509;53.108;6.100;2023-06-24T01:45:48;13.13;;;6.80;;
55641;SDS011;41509;53.108;6.100;2023-06-24T01:48:19;11.38;;;6.53;;
55641;SDS011;41509;53.108;6.100;2023-06-24T01:50:52;13.90;;;7.00;;
55641;SDS011;41509;53.108;6.100;2023-06-24T01:53:23;13.05;;;7.50;;
55641;SDS011;41509;53.108;6.100;2023-06-24T01:55:51;12.25;;;6.85;;
55641;SDS011;41509;53.108;6.100;2023-06-24T01:58:19;11.57;;;6.72;;
55641;SDS011;41509;53.108;6.100;2023-06-24T02:00:47;9.82;;;6.03;;
55641;SDS011;41509;53.108;6.100;2023-06-24T02:03:14;11.63;;;6.45;;
55641;SDS011;41509;53.108;6.100;2023-06-24T02:05:40;11.30;;;7.40;;
55641;SDS011;41509;53.108;6.100;2023-06-24T02:08:10;12.18;;;7.95;;
55641;SDS011;41509;53.108;6.100;2023-06-24T02:10:39;11.13;;;7.15;;
55641;SDS011;41509;53.108;6.100;2023-06-24T02:13:09;12.48;;;6.90;;
55641;SDS011;41509;53.108;6.100;2023-06-24T02:15:36;10.80;;;6.82;;
55641;SDS011;41509;53.108;6.100;2023-06-24T02:18:04;11.00;;;7.30;;
55641;SDS011;41509;53.108;6.100;2023-06-24T02:20:31;11.20;;;6.43;;
55641;SDS011;41509;53.108;6.100;2023-06-24T02:22:58;12.02;;;6.88;;
55641;SDS011;41509;53.108;6.100;2023-06-24T02:25:25;11.43;;;7.50;;
55641;SDS011;41509;53.108;6.100;2023-06-24T02:27:52;12.30;;;7.18;;
55641;SDS011;41509;53.108;6.100;2023-06-24T02:30:20;13.00;;;6.90;;
55641;SDS011;41509;53.108;6.100;2023-06-24T02:32:48;11.88;;;7.55;;
55641;SDS011;41509;53.108;6.100;2023-06-24T02:35:14;11.93;;;7.43;;
55641;SDS011;41509;53.108;6.100;2023-06-24T02:37:39;15.32;;;7.85;;
55641;SDS011;41509;53.108;6.100;2023-06-24T02:40:06;11.80;;;7.20;;
55641;SDS011;41509;53.108;6.100;2023-06-24T02:42:33;11.18;;;7.32;;
55641;SDS011;41509;53.108;6.100;2023-06-24T02:44:59;14.07;;;7.15;;
55641;SDS011;41509;53.108;6.100;2023-06-24T02:47:25;12.00;;;7.57;;
55641;SDS011;41509;53.108;6.100;2023-06-24T02:49:52;12.32;;;7.82;;
55641;SDS011;41509;53.108;6.100;2023-06-24T02:52:21;13.07;;;7.72;;
55641;SDS011;41509;53.108;6.100;2023-06-24T02:54:47;14.18;;;7.15;;
55641;SDS011;41509;53.108;6.100;2023-06-24T02:57:13;10.32;;;6.75;;
55641;SDS011;41509;53.108;6.100;2023-06-24T02:59:40;12.20;;;6.53;;
55641;SDS011;41509;53.108;6.100;2023-06-24T03:02:06;14.38;;;8.05;;
55641;SDS011;41509;53.108;6.100;2023-06-24T03:04:33;12.57;;;8.13;;
55641;SDS011;41509;53.108;6.100;2023-06-24T03:06:59;16.00;;;7.95;;
55641;SDS011;41509;53.108;6.100;2023-06-24T03:11:51;11.05;;;7.40;;
55641;SDS011;41509;53.108;6.100;2023-06-24T03:14:18;17.02;;;7.93;;
55641;SDS011;41509;53.108;6.100;2023-06-24T03:16:44;12.45;;;7.20;;
55641;SDS011;41509;53.108;6.100;2023-06-24T03:19:10;14.05;;;7.60;;
55641;SDS011;41509;53.108;6.100;2023-06-24T03:21:36;13.32;;;8.25;;
55641;SDS011;41509;53.108;6.100;2023-06-24T03:24:02;13.00;;;7.57;;
55641;SDS011;41509;53.108;6.100;2023-06-24T03:26:31;15.02;;;7.22;;
55641;SDS011;41509;53.108;6.100;2023-06-24T03:29:06;15.40;;;8.07;;
55641;SDS011;41509;53.108;6.100;2023-06-24T03:31:32;12.48;;;7.88;;
55641;SDS011;41509;53.108;6.100;2023-06-24T03:33:58;11.38;;;7.13;;
55641;SDS011;41509;53.108;6.100;2023-06-24T03:36:24;13.82;;;7.65;;
55641;SDS011;41509;53.108;6.100;2023-06-24T03:38:50;19.23;;;7.93;;
55641;SDS011;41509;53.108;6.100;2023-06-24T03:41:16;10.80;;;6.97;;
55641;SDS011;41509;53.108;6.100;2023-06-24T03:43:42;13.93;;;7.55;;
55641;SDS011;41509;53.108;6.100;2023-06-24T03:46:08;13.15;;;7.15;;
55641;SDS011;41509;53.108;6.100;2023-06-24T03:48:34;12.15;;;7.00;;
55641;SDS011;41509;53.108;6.100;2023-06-24T03:51:00;11.40;;;6.93;;
55641;SDS011;41509;53.108;6.100;2023-06-24T03:53:26;20.52;;;7.35;;
55641;SDS011;41509;53.108;6.100;2023-06-24T03:55:52;11.30;;;6.78;;
55641;SDS011;41509;53.108;6.100;2023-06-24T03:58:17;11.48;;;7.15;;
55641;SDS011;41509;53.108;6.100;2023-06-24T04:00:46;14.27;;;7.07;;
55641;SDS011;41509;53.108;6.100;2023-06-24T04:03:14;12.88;;;7.22;;
55641;SDS011;41509;53.108;6.100;2023-06-24T04:05:41;13.10;;;7.95;;
55641;SDS011;41509;53.108;6.100;2023-06-24T04:08:06;13.98;;;7.20;;
55641;SDS011;41509;53.108;6.100;2023-06-24T04:10:32;13.07;;;7.93;;
55641;SDS011;41509;53.108;6.100;2023-06-24T04:12:58;11.57;;;7.65;;
55641;SDS011;41509;53.108;6.100;2023-06-24T04:15:24;13.70;;;6.93;;
55641;SDS011;41509;53.108;6.100;2023-06-24T04:17:49;16.13;;;7.22;;
55641;SDS011;41509;53.108;6.100;2023-06-24T04:20:15;13.48;;;7.60;;
55641;SDS011;41509;53.108;6.100;2023-06-24T04:22:41;14.13;;;7.43;;
55641;SDS011;41509;53.108;6.100;2023-06-24T04:25:07;12.35;;;7.43;;
55641;SDS011;41509;53.108;6.100;2023-06-24T04:27:36;12.27;;;6.78;;
55641;SDS011;41509;53.108;6.100;2023-06-24T04:30:02;11.43;;;7.22;;
55641;SDS011;41509;53.108;6.100;2023-06-24T04:32:29;12.90;;;6.80;;
55641;SDS011;41509;53.108;6.100;2023-06-24T04:34:54;10.77;;;6.70;;
55641;SDS011;41509;53.108;6.100;2023-06-24T04:37:20;11.68;;;6.97;;
55641;SDS011;41509;53.108;6.100;2023-06-24T04:39:46;12.73;;;7.00;;
55641;SDS011;41509;53.108;6.100;2023-06-24T04:42:14;13.07;;;7.47;;
55641;SDS011;41509;53.108;6.100;2023-06-24T04:44:40;11.25;;;7.28;;
55641;SDS011;41509;53.108;6.100;2023-06-24T04:47:05;12.57;;;7.40;;
55641;SDS011;41509;53.108;6.100;2023-06-24T04:49:31;10.43;;;6.65;;
55641;SDS011;41509;53.108;6.100;2023-06-24T04:51:59;14.07;;;6.90;;
55641;SDS011;41509;53.108;6.100;2023-06-24T04:54:26;12.02;;;7.13;;
55641;SDS011;41509;53.108;6.100;2023-06-24T04:56:52;12.90;;;7.93;;
55641;SDS011;41509;53.108;6.100;2023-06-24T04:59:20;13.63;;;7.93;;
55641;SDS011;41509;53.108;6.100;2023-06-24T05:01:46;11.52;;;7.20;;
55641;SDS011;41509;53.108;6.100;2023-06-24T05:04:12;11.15;;;6.85;;
55641;SDS011;41509;53.108;6.100;2023-06-24T05:06:38;12.75;;;6.80;;
55641;SDS011;41509;53.108;6.100;2023-06-24T05:09:04;12.75;;;6.35;;
55641;SDS011;41509;53.108;6.100;2023-06-24T05:11:29;14.10;;;7.28;;
55641;SDS011;41509;53.108;6.100;2023-06-24T05:13:55;11.05;;;6.97;;
55641;SDS011;41509;53.108;6.100;2023-06-24T05:16:21;11.50;;;7.20;;
55641;SDS011;41509;53.108;6.100;2023-06-24T05:18:49;11.00;;;7.00;;
55641;SDS011;41509;53.108;6.100;2023-06-24T05:21:14;13.85;;;7.10;;
55641;SDS011;41509;53.108;6.100;2023-06-24T05:23:40;14.07;;;7.40;;
55641;SDS011;41509;53.108;6.100;2023-06-24T05:26:06;14.77;;;7.43;;
55641;SDS011;41509;53.108;6.100;2023-06-24T05:28:31;15.80;;;8.52;;
55641;SDS011;41509;53.108;6.100;2023-06-24T05:30:57;11.82;;;7.57;;
55641;SDS011;41509;53.108;6.100;2023-06-24T05:33:23;11.90;;;6.95;;
55641;SDS011;41509;53.108;6.100;2023-06-24T05:35:48;12.02;;;6.97;;
55641;SDS011;41509;53.108;6.100;2023-06-24T05:38:15;11.48;;;6.93;;
55641;SDS011;41509;53.108;6.100;2023-06-24T05:40:40;10.55;;;6.28;;
55641;SDS011;41509;53.108;6.100;2023-06-24T05:43:06;11.70;;;6.57;;
55641;SDS011;41509;53.108;6.100;2023-06-24T05:45:32;11.27;;;6.40;;
55641;SDS011;41509;53.108;6.100;2023-06-24T05:47:57;13.20;;;6.60;;
55641;SDS011;41509;53.108;6.100;2023-06-24T05:50:23;10.95;;;6.80;;
55641;SDS011;41509;53.108;6.100;2023-06-24T05:52:49;9.60;;;5.93;;
55641;SDS011;41509;53.108;6.100;2023-06-24T05:55:14;10.70;;;6.78;;
55641;SDS011;41509;53.108;6.100;2023-06-24T05:57:40;10.93;;;6.85;;
55641;SDS011;41509;53.108;6.100;2023-06-24T06:00:06;10.07;;;6.38;;
55641;SDS011;41509;53.108;6.100;2023-06-24T06:04:57;12.88;;;6.68;;
55641;SDS011;41509;53.108;6.100;2023-06-24T06:07:23;10.80;;;6.30;;
55641;SDS011;41509;53.108;6.100;2023-06-24T06:09:49;10.48;;;6.38;;
55641;SDS011;41509;53.108;6.100;2023-06-24T06:12:15;11.50;;;6.97;;
55641;SDS011;41509;53.108;6.100;2023-06-24T06:14:40;11.82;;;6.75;;
55641;SDS011;41509;53.108;6.100;2023-06-24T06:17:06;14.57;;;6.72;;
55641;SDS011;41509;53.108;6.100;2023-06-24T06:19:32;12.65;;;6.68;;
55641;SDS011;41509;53.108;6.100;2023-06-24T06:21:57;9.98;;;6.10;;
55641;SDS011;41509;53.108;6.100;2023-06-24T06:24:23;11.10;;;6.03;;
55641;SDS011;41509;53.108;6.100;2023-06-24T06:26:49;12.00;;;6.35;;
55641;SDS011;41509;53.108;6.100;2023-06-24T06:29:19;11.75;;;7.18;;
55641;SDS011;41509;53.108;6.100;2023-06-24T06:31:45;11.93;;;6.95;;
55641;SDS011;41509;53.108;6.100;2023-06-24T06:34:11;10.25;;;6.20;;
55641;SDS011;41509;53.108;6.100;2023-06-24T06:36:36;12.27;;;7.05;;
55641;SDS011;41509;53.108;6.100;2023-06-24T06:39:02;10.32;;;6.47;;
55641;SDS011;41509;53.108;6.100;2023-06-24T06:41:28;12.45;;;6.72;;
55641;SDS011;41509;53.108;6.100;2023-06-24T06:43:53;9.82;;;6.20;;
55641;SDS011;41509;53.108;6.100;2023-06-24T06:46:19;11.77;;;6.93;;
55641;SDS011;41509;53.108;6.100;2023-06-24T06:51:11;12.43;;;6.57;;
55641;SDS011;41509;53.108;6.100;2023-06-24T06:53:37;11.43;;;7.15;;
55641;SDS011;41509;53.108;6.100;2023-06-24T06:56:03;12.52;;;6.63;;
55641;SDS011;41509;53.108;6.100;2023-06-24T06:58:29;13.15;;;6.68;;
55641;SDS011;41509;53.108;6.100;2023-06-24T07:00:55;10.35;;;6.50;;
55641;SDS011;41509;53.108;6.100;2023-06-24T07:03:20;12.57;;;6.55;;
55641;SDS011;41509;53.108;6.100;2023-06-24T07:05:46;11.85;;;7.38;;
55641;SDS011;41509;53.108;6.100;2023-06-24T07:08:12;11.38;;;6.65;;
55641;SDS011;41509;53.108;6.100;2023-06-24T07:10:38;10.65;;;6.63;;
55641;SDS011;41509;53.108;6.100;2023-06-24T07:13:04;11.10;;;6.50;;
55641;SDS011;41509;53.108;6.100;2023-06-24T07:15:29;12.63;;;7.38;;
55641;SDS011;41509;53.108;6.100;2023-06-24T07:17:55;18.65;;;7.85;;
55641;SDS011;41509;53.108;6.100;2023-06-24T07:20:21;11.88;;;7.13;;
55641;SDS011;41509;53.108;6.100;2023-06-24T07:22:47;11.43;;;6.70;;
55641;SDS011;41509;53.108;6.100;2023-06-24T07:25:13;9.60;;;6.00;;
55641;SDS011;41509;53.108;6.100;2023-06-24T07:30:05;12.82;;;6.57;;
55641;SDS011;41509;53.108;6.100;2023-06-24T07:32:31;11.77;;;6.72;;
55641;SDS011;41509;53.108;6.100;2023-06-24T07:37:22;11.65;;;5.95;;
55641;SDS011;41509;53.108;6.100;2023-06-24T07:39:50;10.25;;;6.03;;
55641;SDS011;41509;53.108;6.100;2023-06-24T07:44:47;10.00;;;6.05;;
55641;SDS011;41509;53.108;6.100;2023-06-24T07:47:13;10.48;;;6.40;;
55641;SDS011;41509;53.108;6.100;2023-06-24T07:49:43;11.55;;;6.10;;
55641;SDS011;41509;53.108;6.100;2023-06-24T07:54:35;11.68;;;6.53;;
55641;SDS011;41509;53.108;6.100;2023-06-24T07:57:03;10.48;;;5.88;;
55641;SDS011;41509;53.108;6.100;2023-06-24T08:01:55;9.20;;;5.13;;
55641;SDS011;41509;53.108;6.100;2023-06-24T08:06:46;11.95;;;6.65;;
55641;SDS011;41509;53.108;6.100;2023-06-24T08:11:37;9.95;;;5.65;;
55641;SDS011;41509;53.108;6.100;2023-06-24T08:16:29;9.23;;;5.00;;
55641;SDS011;41509;53.108;6.100;2023-06-24T08:18:54;10.20;;;5.70;;
55641;SDS011;41509;53.108;6.100;2023-06-24T08:23:46;9.45;;;5.43;;
55641;SDS011;41509;53.108;6.100;2023-06-24T08:26:13;10.98;;;6.32;;
55641;SDS011;41509;53.108;6.100;2023-06-24T08:31:04;10.15;;;5.22;;
55641;SDS011;41509;53.108;6.100;2023-06-24T08:33:30;10.40;;;4.88;;
55641;SDS011;41509;53.108;6.100;2023-06-24T08:38:21;9.07;;;5.13;;
55641;SDS011;41509;53.108;6.100;2023-06-24T08:40:49;8.75;;;5.00;;
55641;SDS011;41509;53.108;6.100;2023-06-24T08:45:41;8.15;;;4.93;;
55641;SDS011;41509;53.108;6.100;2023-06-24T08:48:07;7.03;;;4.53;;
55641;SDS011;41509;53.108;6.100;2023-06-24T08:50:37;6.95;;;4.68;;
55641;SDS011;41509;53.108;6.100;2023-06-24T08:53:15;7.15;;;4.60;;
55641;SDS011;41509;53.108;6.100;2023-06-24T08:55:43;8.82;;;4.63;;
55641;SDS011;41509;53.108;6.100;2023-06-24T08:58:11;7.75;;;4.80;;
55641;SDS011;41509;53.108;6.100;2023-06-24T09:00:38;8.80;;;5.05;;
55641;SDS011;41509;53.108;6.100;2023-06-24T09:05:29;9.38;;;5.15;;
55641;SDS011;41509;53.108;6.100;2023-06-24T09:10:31;8.95;;;4.40;;
55641;SDS011;41509;53.108;6.100;2023-06-24T09:12:58;7.97;;;4.63;;
55641;SDS011;41509;53.108;6.100;2023-06-24T09:15:24;7.68;;;4.65;;
55641;SDS011;41509;53.108;6.100;2023-06-24T09:20:15;7.95;;;4.80;;
55641;SDS011;41509;53.108;6.100;2023-06-24T09:22:46;11.02;;;5.38;;
55641;SDS011;41509;53.108;6.100;2023-06-24T09:25:18;9.50;;;5.30;;
55641;SDS011;41509;53.108;6.100;2023-06-24T09:27:48;7.10;;;4.90;;
55641;SDS011;41509;53.108;6.100;2023-06-24T09:30:22;7.05;;;4.85;;
55641;SDS011;41509;53.108;6.100;2023-06-24T09:32:48;7.85;;;4.50;;
55641;SDS011;41509;53.108;6.100;2023-06-24T09:35:19;9.00;;;5.22;;
55641;SDS011;41509;53.108;6.100;2023-06-24T09:37:55;7.93;;;4.78;;
55641;SDS011;41509;53.108;6.100;2023-06-24T09:40:22;7.07;;;4.95;;
55641;SDS011;41509;53.108;6.100;2023-06-24T09:42:49;9.05;;;5.07;;
55641;SDS011;41509;53.108;6.100;2023-06-24T09:45:23;10.13;;;4.93;;
55641;SDS011;41509;53.108;6.100;2023-06-24T09:47:49;10.18;;;4.80;;
55641;SDS011;41509;53.108;6.100;2023-06-24T09:50:15;8.90;;;4.70;;
55641;SDS011;41509;53.108;6.100;2023-06-24T09:52:41;9.73;;;4.47;;
55641;SDS011;41509;53.108;6.100;2023-06-24T09:55:09;5.40;;;3.42;;
55641;SDS011;41509;53.108;6.100;2023-06-24T09:57:39;6.93;;;3.50;;
55641;SDS011;41509;53.108;6.100;2023-06-24T10:00:14;5.32;;;3.47;;
55641;SDS011;41509;53.108;6.100;2023-06-24T10:02:43;7.65;;;3.85;;
55641;SDS011;41509;53.108;6.100;2023-06-24T10:05:11;7.60;;;3.95;;
55641;SDS011;41509;53.108;6.100;2023-06-24T10:07:39;7.70;;;4.50;;
55641;SDS011;41509;53.108;6.100;2023-06-24T10:10:05;5.38;;;3.60;;
55641;SDS011;41509;53.108;6.100;2023-06-24T10:12:33;4.72;;;3.38;;
55641;SDS011;41509;53.108;6.100;2023-06-24T10:14:59;6.93;;;3.97;;
55641;SDS011;41509;53.108;6.100;2023-06-24T10:17:29;5.45;;;3.30;;
55641;SDS011;41509;53.108;6.100;2023-06-24T10:19:55;6.05;;;3.47;;
55641;SDS011;41509;53.108;6.100;2023-06-24T10:22:23;5.05;;;2.95;;
55641;SDS011;41509;53.108;6.100;2023-06-24T10:24:51;6.47;;;3.45;;
55641;SDS011;41509;53.108;6.100;2023-06-24T10:27:18;4.63;;;2.90;;
55641;SDS011;41509;53.108;6.100;2023-06-24T10:29:47;4.40;;;2.97;;
55641;SDS011;41509;53.108;6.100;2023-06-24T10:32:14;5.18;;;3.08;;
55641;SDS011;41509;53.108;6.100;2023-06-24T10:34:41;5.65;;;3.13;;
55641;SDS011;41509;53.108;6.100;2023-06-24T10:37:08;5.40;;;2.90;;
55641;SDS011;41509;53.108;6.100;2023-06-24T10:39:52;6.18;;;3.22;;
55641;SDS011;41509;53.108;6.100;2023-06-24T10:45:17;6.68;;;3.53;;
55641;SDS011;41509;53.108;6.100;2023-06-24T10:47:53;6.60;;;3.53;;
55641;SDS011;41509;53.108;6.100;2023-06-24T10:50:21;4.95;;;3.13;;
55641;SDS011;41509;53.108;6.100;2023-06-24T10:52:49;5.65;;;3.50;;
55641;SDS011;41509;53.108;6.100;2023-06-24T10:55:21;5.50;;;3.15;;
55641;SDS011;41509;53.108;6.100;2023-06-24T10:57:51;5.75;;;2.90;;
55641;SDS011;41509;53.108;6.100;2023-06-24T11:00:16;5.72;;;2.95;;
55641;SDS011;41509;53.108;6.100;2023-06-24T11:02:43;6.60;;;3.30;;
55641;SDS011;41509;53.108;6.100;2023-06-24T11:05:09;6.93;;;3.33;;
55641;SDS011;41509;53.108;6.100;2023-06-24T11:07:36;8.20;;;3.10;;
55641;SDS011;41509;53.108;6.100;2023-06-24T11:10:13;5.95;;;3.10;;
55641;SDS011;41509;53.108;6.100;2023-06-24T11:12:40;6.00;;;2.78;;
55641;SDS011;41509;53.108;6.100;2023-06-24T11:15:10;5.78;;;3.15;;
55641;SDS011;41509;53.108;6.100;2023-06-24T11:17:38;4.10;;;2.65;;
55641;SDS011;41509;53.108;6.100;2023-06-24T11:20:08;4.38;;;2.72;;
55641;SDS011;41509;53.108;6.100;2023-06-24T11:22:37;6.65;;;2.53;;
55641;SDS011;41509;53.108;6.100;2023-06-24T11:25:41;5.55;;;3.08;;
55641;SDS011;41509;53.108;6.100;2023-06-24T11:28:03;5.05;;;3.03;;
55641;SDS011;41509;53.108;6.100;2023-06-24T11:30:33;6.70;;;2.88;;
55641;SDS011;41509;53.108;6.100;2023-06-24T11:32:59;5.07;;;3.05;;
55641;SDS011;41509;53.108;6.100;2023-06-24T11:35:25;4.05;;;2.88;;
55641;SDS011;41509;53.108;6.100;2023-06-24T11:37:51;6.35;;;3.20;;
55641;SDS011;41509;53.108;6.100;2023-06-24T11:40:17;6.25;;;3.28;;
55641;SDS011;41509;53.108;6.100;2023-06-24T11:42:44;7.60;;;3.13;;
55641;SDS011;41509;53.108;6.100;2023-06-24T11:45:12;5.65;;;3.08;;
55641;SDS011;41509;53.108;6.100;2023-06-24T11:47:40;10.10;;;2.88;;
55641;SDS011;41509;53.108;6.100;2023-06-24T11:50:06;5.80;;;3.10;;
55641;SDS011;41509;53.108;6.100;2023-06-24T11:52:43;5.13;;;2.63;;
55641;SDS011;41509;53.108;6.100;2023-06-24T12:00:15;4.95;;;3.25;;
55641;SDS011;41509;53.108;6.100;2023-06-24T12:02:41;4.45;;;2.50;;
55641;SDS011;41509;53.108;6.100;2023-06-24T12:05:09;5.68;;;3.17;;
55641;SDS011;41509;53.108;6.100;2023-06-24T12:07:35;7.82;;;4.00;;
55641;SDS011;41509;53.108;6.100;2023-06-24T12:10:01;5.43;;;2.92;;
55641;SDS011;41509;53.108;6.100;2023-06-24T12:12:27;5.18;;;2.90;;
55641;SDS011;41509;53.108;6.100;2023-06-24T12:14:53;5.00;;;2.92;;
55641;SDS011;41509;53.108;6.100;2023-06-24T12:17:19;4.95;;;3.05;;
55641;SDS011;41509;53.108;6.100;2023-06-24T12:19:44;4.72;;;2.40;;
55641;SDS011;41509;53.108;6.100;2023-06-24T12:22:11;5.43;;;3.00;;
55641;SDS011;41509;53.108;6.100;2023-06-24T12:24:37;5.18;;;2.45;;
55641;SDS011;41509;53.108;6.100;2023-06-24T12:27:03;5.65;;;2.45;;
55641;SDS011;41509;53.108;6.100;2023-06-24T12:29:29;5.00;;;2.55;;
55641;SDS011;41509;53.108;6.100;2023-06-24T12:31:54;4.28;;;2.40;;
55641;SDS011;41509;53.108;6.100;2023-06-24T12:34:20;3.70;;;2.15;;
55641;SDS011;41509;53.108;6.100;2023-06-24T12:36:46;6.05;;;2.08;;
55641;SDS011;41509;53.108;6.100;2023-06-24T12:39:11;2.63;;;1.73;;
55641;SDS011;41509;53.108;6.100;2023-06-24T12:41:37;4.90;;;2.25;;
55641;SDS011;41509;53.108;6.100;2023-06-24T12:44:06;3.85;;;2.22;;
55641;SDS011;41509;53.108;6.100;2023-06-24T12:46:34;4.05;;;1.88;;
55641;SDS011;41509;53.108;6.100;2023-06-24T12:49:00;4.03;;;2.20;;
55641;SDS011;41509;53.108;6.100;2023-06-24T12:51:25;4.10;;;2.30;;
55641;SDS011;41509;53.108;6.100;2023-06-24T12:53:54;4.18;;;2.35;;
55641;SDS011;41509;53.108;6.100;2023-06-24T12:56:19;5.78;;;2.70;;
55641;SDS011;41509;53.108;6.100;2023-06-24T12:58:45;8.10;;;2.97;;
55641;SDS011;41509;53.108;6.100;2023-06-24T13:01:11;5.43;;;2.40;;
55641;SDS011;41509;53.108;6.100;2023-06-24T13:03:36;3.28;;;1.90;;
55641;SDS011;41509;53.108;6.100;2023-06-24T13:06:02;2.70;;;1.70;;
55641;SDS011;41509;53.108;6.100;2023-06-24T13:08:28;5.93;;;2.58;;
55641;SDS011;41509;53.108;6.100;2023-06-24T13:10:53;6.47;;;2.03;;
55641;SDS011;41509;53.108;6.100;2023-06-24T13:13:19;4.28;;;2.70;;
55641;SDS011;41509;53.108;6.100;2023-06-24T13:15:45;5.63;;;2.10;;
55641;SDS011;41509;53.108;6.100;2023-06-24T13:18:10;4.15;;;2.08;;
55641;SDS011;41509;53.108;6.100;2023-06-24T13:20:36;8.07;;;2.70;;
55641;SDS011;41509;53.108;6.100;2023-06-24T13:23:02;2.88;;;2.10;;
55641;SDS011;41509;53.108;6.100;2023-06-24T13:25:27;5.65;;;2.70;;
55641;SDS011;41509;53.108;6.100;2023-06-24T13:27:53;4.05;;;2.45;;
55641;SDS011;41509;53.108;6.100;2023-06-24T13:30:19;4.60;;;2.35;;
55641;SDS011;41509;53.108;6.100;2023-06-24T13:32:45;5.65;;;2.20;;
55641;SDS011;41509;53.108;6.100;2023-06-24T13:35:10;3.40;;;1.90;;
55641;SDS011;41509;53.108;6.100;2023-06-24T13:37:36;2.78;;;1.65;;
55641;SDS011;41509;53.108;6.100;2023-06-24T13:40:03;6.00;;;2.67;;
55641;SDS011;41509;53.108;6.100;2023-06-24T13:42:30;3.10;;;1.88;;
55641;SDS011;41509;53.108;6.100;2023-06-24T13:44:56;4.15;;;2.00;;
55641;SDS011;41509;53.108;6.100;2023-06-24T13:47:22;4.68;;;2.00;;
55641;SDS011;41509;53.108;6.100;2023-06-24T13:49:48;4.00;;;2.10;;
55641;SDS011;41509;53.108;6.100;2023-06-24T13:52:13;4.30;;;2.17;;
55641;SDS011;41509;53.108;6.100;2023-06-24T13:54:39;3.75;;;1.80;;
55641;SDS011;41509;53.108;6.100;2023-06-24T13:57:05;3.05;;;1.85;;
55641;SDS011;41509;53.108;6.100;2023-06-24T13:59:30;3.08;;;1.70;;
55641;SDS011;41509;53.108;6.100;2023-06-24T14:01:59;2.92;;;1.98;;
55641;SDS011;41509;53.108;6.100;2023-06-24T14:04:24;4.70;;;1.77;;
55641;SDS011;41509;53.108;6.100;2023-06-24T14:06:50;5.15;;;1.85;;
55641;SDS011;41509;53.108;6.100;2023-06-24T14:09:16;3.30;;;1.70;;
55641;SDS011;41509;53.108;6.100;2023-06-24T14:11:42;2.55;;;1.92;;
55641;SDS011;41509;53.108;6.100;2023-06-24T14:14:07;2.83;;;1.63;;
55641;SDS011;41509;53.108;6.100;2023-06-24T14:16:33;4.78;;;1.85;;
55641;SDS011;41509;53.108;6.100;2023-06-24T14:18:58;3.55;;;1.80;;
55641;SDS011;41509;53.108;6.100;2023-06-24T14:21:27;3.08;;;1.85;;
55641;SDS011;41509;53.108;6.100;2023-06-24T14:23:54;3.55;;;2.10;;
55641;SDS011;41509;53.108;6.100;2023-06-24T14:26:19;4.05;;;1.80;;
55641;SDS011;41509;53.108;6.100;2023-06-24T14:28:45;3.67;;;1.70;;
55641;SDS011;41509;53.108;6.100;2023-06-24T14:31:11;3.17;;;1.58;;
55641;SDS011;41509;53.108;6.100;2023-06-24T14:33:36;2.08;;;1.40;;
55641;SDS011;41509;53.108;6.100;2023-06-24T14:36:02;3.28;;;1.63;;
55641;SDS011;41509;53.108;6.100;2023-06-24T14:38:28;3.05;;;1.55;;
55641;SDS011;41509;53.108;6.100;2023-06-24T14:40:54;3.05;;;2.05;;
55641;SDS011;41509;53.108;6.100;2023-06-24T14:43:21;3.22;;;1.83;;
55641;SDS011;41509;53.108;6.100;2023-06-24T14:45:47;3.00;;;2.00;;
55641;SDS011;41509;53.108;6.100;2023-06-24T14:48:13;4.43;;;2.25;;
55641;SDS011;41509;53.108;6.100;2023-06-24T14:50:39;3.28;;;2.00;;
55641;SDS011;41509;53.108;6.100;2023-06-24T14:53:07;3.60;;;1.67;;
55641;SDS011;41509;53.108;6.100;2023-06-24T14:55:32;3.33;;;1.67;;
55641;SDS011;41509;53.108;6.100;2023-06-24T14:57:58;3.78;;;2.05;;
55641;SDS011;41509;53.108;6.100;2023-06-24T15:00:24;3.65;;;2.00;;
55641;SDS011;41509;53.108;6.100;2023-06-24T15:02:49;2.45;;;1.40;;
55641;SDS011;41509;53.108;6.100;2023-06-24T15:05:15;3.20;;;2.00;;
55641;SDS011;41509;53.108;6.100;2023-06-24T15:07:41;4.30;;;1.73;;
55641;SDS011;41509;53.108;6.100;2023-06-24T15:10:06;3.25;;;1.83;;
55641;SDS011;41509;53.108;6.100;2023-06-24T15:12:32;4.82;;;2.10;;
55641;SDS011;41509;53.108;6.100;2023-06-24T15:14:59;6.03;;;1.92;;
55641;SDS011;41509;53.108;6.100;2023-06-24T15:17:25;5.82;;;2.42;;
55641;SDS011;41509;53.108;6.100;2023-06-24T15:19:51;2.70;;;1.70;;
55641;SDS011;41509;53.108;6.100;2023-06-24T15:22:17;3.28;;;1.75;;
55641;SDS011;41509;53.108;6.100;2023-06-24T15:24:42;7.75;;;2.63;;
55641;SDS011;41509;53.108;6.100;2023-06-24T15:27:09;2.95;;;2.15;;
55641;SDS011;41509;53.108;6.100;2023-06-24T15:29:35;5.15;;;2.13;;
55641;SDS011;41509;53.108;6.100;2023-06-24T15:32:01;3.28;;;2.08;;
55641;SDS011;41509;53.108;6.100;2023-06-24T15:34:27;3.40;;;2.22;;
55641;SDS011;41509;53.108;6.100;2023-06-24T15:36:55;5.22;;;1.95;;
55641;SDS011;41509;53.108;6.100;2023-06-24T15:39:21;3.85;;;2.08;;
55641;SDS011;41509;53.108;6.100;2023-06-24T15:41:47;3.80;;;1.92;;
55641;SDS011;41509;53.108;6.100;2023-06-24T15:44:15;3.60;;;2.13;;